createdAt,value
2022-10-06T00:02:04.063Z,83.00
2022-10-06T00:04:35.881Z,83.20
2022-10-06T00:07:08.010Z,83.00
2022-10-06T00:09:39.914Z,83.00
2022-10-06T00:12:11.862Z,83.00
2022-10-06T00:14:43.807Z,83.00
2022-10-06T00:17:15.620Z,83.80
2022-10-06T00:19:47.478Z,83.00
2022-10-06T00:22:19.305Z,83.00
2022-10-06T00:24:51.118Z,83.00
2022-10-06T00:27:22.974Z,83.00
2022-10-06T00:29:54.778Z,83.00
2022-10-06T00:32:26.606Z,83.00
2022-10-06T00:35:01.092Z,82.90
2022-10-06T00:37:37.937Z,83.00
2022-10-06T00:40:10.755Z,83.00
2022-10-06T00:43:01.027Z,82.90
2022-10-06T00:45:46.059Z,82.90
2022-10-06T00:48:26.916Z,82.90
2022-10-06T00:50:59.587Z,82.90
2022-10-06T00:53:32.389Z,83.00
2022-10-06T00:56:04.348Z,83.00
2022-10-06T01:04:03.202Z,82.90
2022-10-06T01:06:50.234Z,82.90
2022-10-06T01:09:24.064Z,82.90
2022-10-06T01:12:01.925Z,82.90
2022-10-06T01:14:36.662Z,82.90
2022-10-06T01:56:24.570Z,82.80
2022-10-06T01:58:56.426Z,82.70
2022-10-06T02:01:28.292Z,82.80
2022-10-06T02:04:00.304Z,82.70
2022-10-06T02:06:32.223Z,82.70
2022-10-06T02:17:29.312Z,82.70
2022-10-06T02:20:01.098Z,82.70
2022-10-06T02:47:43.743Z,82.60
2022-10-06T02:50:15.791Z,82.60
2022-10-06T02:52:47.674Z,82.60
2022-10-06T02:55:19.483Z,82.60
2022-10-06T02:57:51.354Z,82.60
2022-10-06T03:00:23.542Z,82.60
2022-10-06T03:28:00.111Z,82.50
2022-10-06T03:30:31.975Z,82.50
2022-10-06T03:33:03.794Z,82.50
2022-10-06T03:35:35.599Z,82.50
2022-10-06T03:38:07.459Z,82.40
2022-10-06T03:40:39.245Z,82.50
2022-10-06T03:47:21.838Z,82.50
2022-10-06T03:49:53.733Z,82.50
2022-10-06T03:52:26.208Z,82.50
2022-10-06T03:54:58.111Z,83.30
2022-10-06T03:57:29.930Z,83.30
2022-10-06T04:00:02.859Z,82.50
2022-10-06T04:02:36.631Z,82.50
2022-10-06T04:05:09.066Z,82.50
2022-10-06T04:07:40.869Z,82.50
2022-10-06T04:10:12.661Z,82.40
2022-10-06T04:12:44.504Z,82.50
2022-10-06T04:15:16.310Z,82.50
2022-10-06T04:17:48.098Z,82.40
2022-10-06T04:37:05.894Z,82.20
2022-10-06T04:39:37.806Z,82.20
2022-10-06T04:42:09.631Z,82.40
2022-10-06T04:44:41.459Z,82.30
2022-10-06T04:47:13.271Z,82.20
2022-10-06T04:49:45.113Z,82.30
2022-10-06T04:52:17.094Z,82.30
2022-10-06T04:54:48.934Z,83.00
2022-10-06T04:57:20.744Z,82.30
2022-10-06T05:00:14.803Z,83.00
2022-10-06T05:02:46.984Z,82.30
2022-10-06T05:05:18.826Z,82.50
2022-10-06T05:07:50.665Z,82.50
2022-10-06T05:15:36.152Z,82.40
2022-10-06T05:18:08.139Z,82.30
2022-10-06T05:24:53.813Z,81.10
2022-10-06T06:30:17.766Z,90.00
2022-10-06T06:32:50.034Z,90.20
2022-10-06T06:35:21.903Z,90.30
2022-10-06T06:37:53.766Z,90.50
2022-10-06T06:53:18.857Z,90.70
2022-10-06T06:55:51.811Z,90.70
2022-10-06T06:58:23.894Z,90.70
2022-10-06T07:01:04.694Z,90.80
2022-10-06T07:03:56.787Z,90.90
2022-10-06T07:06:30.678Z,90.90
2022-10-06T07:17:36.378Z,90.70
2022-10-06T07:20:27.477Z,90.60
2022-10-06T07:23:17.794Z,90.50
2022-10-06T07:25:53.053Z,90.40
2022-10-06T07:29:02.749Z,90.30
2022-10-06T07:31:36.560Z,90.30
2022-10-06T07:34:08.435Z,90.10
2022-10-06T07:37:08.253Z,90.00
2022-10-06T07:39:40.103Z,89.80
2022-10-06T07:42:15.062Z,89.40
2022-10-06T07:45:07.909Z,89.40
2022-10-06T07:47:39.724Z,89.30
2022-10-06T07:50:13.024Z,88.70
2022-10-06T07:52:47.948Z,88.70
2022-10-06T07:55:19.835Z,88.00
2022-10-06T07:57:51.655Z,87.70
2022-10-06T08:00:23.573Z,87.60
2022-10-06T08:02:55.627Z,87.10
2022-10-06T08:05:27.504Z,86.80
2022-10-06T08:07:59.393Z,86.50
2022-10-06T08:10:31.665Z,86.30
2022-10-06T08:13:07.151Z,86.50
2022-10-06T08:15:38.989Z,84.90
2022-10-06T08:18:27.181Z,85.00
2022-10-06T08:21:19.875Z,84.80
2022-10-06T08:23:53.943Z,84.20
2022-10-06T08:26:28.669Z,83.70
2022-10-06T08:29:03.017Z,83.40
2022-10-06T08:31:35.070Z,83.40
2022-10-06T08:34:12.061Z,81.90
2022-10-06T08:36:56.989Z,81.50
2022-10-06T08:39:36.127Z,81.30
2022-10-06T08:42:15.118Z,80.70
2022-10-06T08:44:59.278Z,80.00
2022-10-06T08:47:37.121Z,80.10
2022-10-06T08:50:12.872Z,79.30
2022-10-06T08:53:05.168Z,79.40
2022-10-06T08:55:48.158Z,78.80
2022-10-06T08:58:54.560Z,78.50
2022-10-06T09:01:40.299Z,77.30
2022-10-06T09:04:30.473Z,77.30
2022-10-06T09:07:14.246Z,76.80
2022-10-06T09:10:23.108Z,77.00
2022-10-06T09:13:40.786Z,77.20
2022-10-06T09:16:21.784Z,75.40
2022-10-06T09:19:12.405Z,75.60
2022-10-06T09:21:52.899Z,75.90
2022-10-06T09:24:42.416Z,75.60
2022-10-06T09:27:33.876Z,74.60
2022-10-06T09:30:06.249Z,72.90
2022-10-06T09:32:46.900Z,73.00
2022-10-06T09:35:25.609Z,72.80
2022-10-06T09:38:08.220Z,71.00
2022-10-06T09:40:49.327Z,70.80
2022-10-06T09:43:29.249Z,71.00
2022-10-06T09:46:39.552Z,70.60
2022-10-06T09:49:26.001Z,69.50
2022-10-06T09:52:13.034Z,69.50
2022-10-06T09:54:45.287Z,69.80
2022-10-06T09:57:25.722Z,68.90
2022-10-06T09:59:59.613Z,68.90
2022-10-06T10:02:39.574Z,69.70
2022-10-06T10:05:22.525Z,68.30
2022-10-06T10:08:22.403Z,68.50
2022-10-06T10:11:39.850Z,67.90
2022-10-06T10:14:22.302Z,67.50
2022-10-06T10:16:54.240Z,66.80
2022-10-06T10:19:36.919Z,66.20
2022-10-06T10:22:23.325Z,65.50
2022-10-06T10:28:18.096Z,61.90
2022-10-06T10:31:12.710Z,64.70
2022-10-06T10:34:34.968Z,64.50
2022-10-06T10:37:15.948Z,64.40
2022-10-06T10:39:59.123Z,64.30
2022-10-06T10:42:52.574Z,64.30
2022-10-06T10:45:39.813Z,63.00
2022-10-06T10:48:30.540Z,62.40
2022-10-06T10:51:07.798Z,61.60
2022-10-06T10:54:03.297Z,61.00
2022-10-06T10:56:35.636Z,60.60
2022-10-06T10:59:30.801Z,60.20
2022-10-06T11:02:19.419Z,59.90
2022-10-06T11:05:00.753Z,60.10
2022-10-06T11:07:57.053Z,60.10
2022-10-06T11:10:45.366Z,59.60
2022-10-06T11:13:27.413Z,59.40
2022-10-06T11:16:49.449Z,59.40
2022-10-06T11:19:54.041Z,58.90
2022-10-06T11:23:18.709Z,58.80
2022-10-06T11:26:35.888Z,58.60
2022-10-06T11:29:35.501Z,58.40
2022-10-06T11:32:37.007Z,58.30
2022-10-06T11:35:27.591Z,57.90
2022-10-06T11:38:27.400Z,54.70
2022-10-06T11:41:10.386Z,55.60
2022-10-06T11:44:00.488Z,55.60
2022-10-06T11:46:45.149Z,55.50
2022-10-06T11:49:29.325Z,55.80
2022-10-06T11:52:08.373Z,55.70
2022-10-06T11:54:40.599Z,55.30
2022-10-06T11:57:30.638Z,55.30
2022-10-06T12:00:05.588Z,54.90
2022-10-06T12:02:40.646Z,55.10
2022-10-06T12:05:37.653Z,54.40
2022-10-06T12:08:07.914Z,54.50
2022-10-06T12:10:49.966Z,54.10
2022-10-06T12:20:13.214Z,54.80
2022-10-06T12:22:55.889Z,54.50
2022-10-06T12:26:01.261Z,54.20
2022-10-06T12:28:53.827Z,54.10
2022-10-06T12:32:15.755Z,54.20
2022-10-06T12:35:20.724Z,54.00
2022-10-06T12:37:58.475Z,53.80
2022-10-06T12:40:46.825Z,53.80
2022-10-06T12:43:18.707Z,53.50
2022-10-06T12:46:13.019Z,53.70
2022-10-06T12:49:18.558Z,53.70
2022-10-06T12:51:57.768Z,53.50
2022-10-06T12:54:58.474Z,53.60
2022-10-06T12:57:32.166Z,53.70
2022-10-06T13:00:32.065Z,53.90
2022-10-06T13:03:08.745Z,54.10
2022-10-06T13:05:41.815Z,54.10
2022-10-06T13:08:30.758Z,53.70
2022-10-06T13:11:27.029Z,53.30
2022-10-06T13:14:17.913Z,53.20
2022-10-06T13:16:50.085Z,52.70
2022-10-06T13:19:27.329Z,52.60
2022-10-06T13:22:03.646Z,52.60
2022-10-06T13:24:35.596Z,52.50
2022-10-06T13:27:17.598Z,52.70
2022-10-06T13:29:49.671Z,52.60
2022-10-06T13:32:21.668Z,52.80
2022-10-06T13:34:53.649Z,52.80
2022-10-06T13:41:44.591Z,52.60
2022-10-06T13:44:35.275Z,52.60
2022-10-06T13:47:19.799Z,52.70
2022-10-06T13:50:04.783Z,52.30
2022-10-06T13:52:39.735Z,52.20
2022-10-06T13:55:19.057Z,52.70
2022-10-06T13:58:08.580Z,51.40
2022-10-06T14:01:00.833Z,51.20
2022-10-06T14:06:21.338Z,51.10
2022-10-06T14:08:57.808Z,51.20
2022-10-06T14:11:30.750Z,51.30
2022-10-06T14:14:06.106Z,51.40
2022-10-06T14:16:38.076Z,51.10
2022-10-06T14:19:33.046Z,51.10
2022-10-06T14:22:29.899Z,50.30
2022-10-06T14:25:02.436Z,50.70
2022-10-06T14:27:34.264Z,50.40
2022-10-06T14:30:07.354Z,51.00
2022-10-06T14:32:40.146Z,51.40
2022-10-06T14:35:12.050Z,51.50
2022-10-06T14:37:43.835Z,51.80
2022-10-06T14:40:15.826Z,51.60
2022-10-06T14:45:24.355Z,51.80
2022-10-06T14:47:56.759Z,51.80
2022-10-06T14:50:30.455Z,52.10
2022-10-06T14:53:03.338Z,52.20
2022-10-06T14:55:37.464Z,52.40
2022-10-06T16:33:13.973Z,79.90
2022-10-06T16:35:57.808Z,80.80
2022-10-06T16:38:29.765Z,79.10
2022-10-06T16:41:03.043Z,78.80
2022-10-06T16:43:42.123Z,78.20
2022-10-06T16:46:21.215Z,77.90
2022-10-06T16:48:56.637Z,77.40
2022-10-06T16:51:34.273Z,77.40
2022-10-06T16:54:09.486Z,77.20
2022-10-06T16:56:46.127Z,77.10
2022-10-06T16:59:20.884Z,77.00
2022-10-06T17:01:52.833Z,77.10
2022-10-06T17:04:26.102Z,77.10
2022-10-06T17:06:58.148Z,77.00
2022-10-06T17:09:30.586Z,77.10
2022-10-06T17:12:04.412Z,77.10
2022-10-06T17:14:36.262Z,77.20
2022-10-06T17:17:08.239Z,77.30
2022-10-06T17:19:40.114Z,77.40
2022-10-06T17:22:12.129Z,77.70
2022-10-06T17:24:43.965Z,77.60
2022-10-06T17:27:15.843Z,77.70
2022-10-06T17:29:49.083Z,77.80
2022-10-06T17:32:22.009Z,77.90
2022-10-06T17:34:54.095Z,78.00
2022-10-06T17:37:25.995Z,78.00
2022-10-06T17:39:57.805Z,78.00
2022-10-06T17:42:30.119Z,78.00
2022-10-06T17:45:02.153Z,78.00
2022-10-06T17:47:34.028Z,78.00
2022-10-06T17:50:06.671Z,78.00
2022-10-06T17:52:39.085Z,78.00
2022-10-06T17:55:11.403Z,78.10
2022-10-06T17:57:43.247Z,77.90
2022-10-06T18:00:17.810Z,78.10
2022-10-06T18:02:49.809Z,78.10
2022-10-06T18:05:21.717Z,77.90
2022-10-06T18:07:55.083Z,77.70
2022-10-06T18:10:45.590Z,77.60
2022-10-06T18:13:17.467Z,77.60
